Language selection

My Weather Profile Weather Topics  | 

Pacific - South Coast: Past 24 Hour Conditions

 

South Moresby - 46147

07:00 PM PST 26 November 2022Buoy position: 51.83N 131.23W
Disclaimer

This table is a summary of hourly weather conditions for the past 24 hours.
Please note that these observations might not always be representative of weather conditions over their associated marine area.

Date / Time
(PST)
Wind(knots) Wave height(m) Wave period(s) Pressure(kPa) Air tempC) Water tempC)
26 November 2022
19:00 WNW 25 gust 32 5.9 11.6 101.5 6 8
18:00 WNW 25 gust 34 6.0 11.6 101.5 6 8
17:00 WNW 25 gust 33 5.9 11.6 101.4 7 8
16:00 W 29 gust 35 5.5 10.2 101.3 7 8
15:00 W 24 N/A N/A N/A N/A N/A
14:00 WNW 25 gust 32 4.7 10.7 101.3 7 8
13:00 WNW 29 gust 36 5.0 11.1 101.2 7 9
12:00 WNW 29 gust 36 5.1 10.2 101.2 7 9
11:00 W 23 gust 30 5.1 11.1 101.2 9 9
10:00 SW 27 gust 33 4.7 10.2 101.1 9 9
9:00 SW 28 gust 35 4.6 10.7 101.2 9 8
8:00 SW 28 gust 36 4.5 10.7 101.3 9 8
7:00 SW 27 gust 33 4.5 10.7 101.4 9 8
6:00 SW 28 gust 33 4.4 11.1 101.5 10 8
5:00 SW 25 gust 31 4.5 10.2 101.6 10 9
4:00 SW 26 gust 37 4.6 11.1 101.7 10 8
3:00 SW 25 gust 31 4.7 11.6 101.9 10 8
2:00 SW 26 gust 35 4.6 11.1 101.9 10 8
1:00 SW 25 N/A N/A N/A 9 N/A
0:00 SW 24 gust 31 4.9 12.2 102.1 9 8
25 November 2022
23:00 SW 24 gust 30 4.7 12.2 102.1 9 8
22:00 SW 21 gust 29 4.2 11.6 102.2 9 9
21:00 SW 14 gust 18 4.5 10.7 102.2 9 9
20:00 SW 13 gust 19 4.6 12.8 102.2 9 8
19:00 WSW 15 gust 21 4.6 13.5 102.3 8 8

Zoom-in to make a selection

Map of Pacific - South Coast marine weather areas South Nomad - 46036 Sentry Shoal - 46131 South Brooks - 46132 Halibut Bank - 46146 South Moresby - 46147 South Hecate Strait - 46185 West Sea Otter - 46204 La Perouse Bank - 46206 East Dellwood - 46207 Georgia Strait - 46303 English Bay - 46304 Discovery Island Esquimalt Harbour Kelp Reefs Malahat Race Rocks Lightstation Saturna Island Sheringham Point University of Victoria Victoria Gonzales Victoria Int'l Airport Ballenas Islands Campbell River Airport Comox Airport Entrance Island Fanny Island Nanaimo Airport Port Hardy Airport Sisters Islets Estevan Point Port Alberni Sartine Island Solander Island Tofino Airport Grief Point Howe Sound - Pam Rocks Powell River Airport Sechelt Squamish Airport Cape St.James Bella Bella Airport Bella Coola Airport Cathedral Point Herbert Island Point Atkinson Sand Heads Lightstation Tsawwassen Ferry Terminal Vancouver Int'l Airport Vancouver Harbour West Vancouver
Legend:
buoy Buoy
land station Land Station

Pacific - South Coast Area

Another Region

What we are doing

Date modified: